createdAt,value
2023-03-08T00:02:23.008Z,63.19
2023-03-08T00:04:50.604Z,65.13
2023-03-08T00:07:18.136Z,64.36
2023-03-08T00:09:46.951Z,62.64
2023-03-08T00:12:14.422Z,65.16
2023-03-08T00:14:42.067Z,63.71
2023-03-08T00:17:09.568Z,65.01
2023-03-08T00:19:37.224Z,66.23
2023-03-08T00:22:04.689Z,65.45
2023-03-08T00:24:32.228Z,65.04
2023-03-08T00:27:01.294Z,65.74
2023-03-08T00:29:28.776Z,66.43
2023-03-08T00:31:56.273Z,66.44
2023-03-08T00:34:23.833Z,65.98
2023-03-08T00:36:51.305Z,65.69
2023-03-08T00:39:18.796Z,66.25
2023-03-08T00:41:46.268Z,66.06
2023-03-08T00:44:15.067Z,65.50
2023-03-08T00:46:42.620Z,65.30
2023-03-08T00:49:10.599Z,65.84
2023-03-08T00:51:38.110Z,65.25
2023-03-08T00:54:05.800Z,65.02
2023-03-08T00:56:33.257Z,65.55
2023-03-08T00:59:00.745Z,65.36
2023-03-08T01:01:29.565Z,66.31
2023-03-08T01:03:57.047Z,65.03
2023-03-08T01:06:24.664Z,65.22
2023-03-08T01:08:52.408Z,65.56
2023-03-08T01:11:22.295Z,63.71
2023-03-08T01:13:51.163Z,64.76
2023-03-08T01:16:20.537Z,64.26
2023-03-08T01:18:49.843Z,63.93
2023-03-08T01:21:17.789Z,64.30
2023-03-08T01:23:45.321Z,65.19
2023-03-08T01:26:14.973Z,65.06
2023-03-08T01:28:42.863Z,64.25
2023-03-08T01:31:14.134Z,62.96
2023-03-08T01:33:42.472Z,63.73
2023-03-08T01:36:14.873Z,63.41
2023-03-08T01:38:43.075Z,61.20
2023-03-08T01:41:16.197Z,60.94
2023-03-08T01:43:43.642Z,62.14
2023-03-08T01:46:25.228Z,64.43
2023-03-08T01:48:56.818Z,63.84
2023-03-08T01:51:33.916Z,63.13
2023-03-08T01:54:05.229Z,62.97
2023-03-08T01:56:33.428Z,63.95
2023-03-08T01:59:02.386Z,63.22
2023-03-08T02:01:30.131Z,62.95
2023-03-08T02:03:57.669Z,63.30
2023-03-08T02:06:25.161Z,62.96
2023-03-08T02:08:54.107Z,62.19
2023-03-08T02:11:23.500Z,61.15
2023-03-08T02:13:52.014Z,60.67
2023-03-08T02:16:19.739Z,63.55
2023-03-08T02:18:55.112Z,63.63
2023-03-08T02:21:23.583Z,64.22
2023-03-08T02:23:52.454Z,64.67
2023-03-08T02:26:20.366Z,64.78
2023-03-08T02:28:47.983Z,64.52
2023-03-08T02:31:16.477Z,65.89
2023-03-08T02:33:44.018Z,67.84
2023-03-08T02:36:11.976Z,65.65
2023-03-08T02:38:39.633Z,67.13
2023-03-08T02:41:08.519Z,67.45
2023-03-08T02:43:36.000Z,68.03
2023-03-08T02:46:03.492Z,65.89
2023-03-08T02:48:30.960Z,66.52
2023-03-08T02:50:58.438Z,65.34
2023-03-08T02:53:25.920Z,64.86
2023-03-08T02:55:53.428Z,65.08
2023-03-08T02:58:22.265Z,64.49
2023-03-08T03:00:49.792Z,64.56
2023-03-08T03:03:18.358Z,64.81
2023-03-08T03:05:46.130Z,65.05
2023-03-08T03:08:13.754Z,64.37
2023-03-08T03:10:41.668Z,64.19
2023-03-08T03:13:09.430Z,64.57
2023-03-08T03:15:40.550Z,66.07
2023-03-08T03:18:08.482Z,67.35
2023-03-08T03:20:36.009Z,66.81
2023-03-08T03:23:03.600Z,67.22
2023-03-08T03:25:31.293Z,68.93
2023-03-08T03:27:58.787Z,68.83
2023-03-08T03:30:26.302Z,69.30
2023-03-08T03:32:55.162Z,69.00
2023-03-08T03:35:22.693Z,69.44
2023-03-08T03:37:50.182Z,68.63
2023-03-08T03:40:18.058Z,67.01
2023-03-08T03:42:45.534Z,68.18
2023-03-08T03:45:12.990Z,70.51
2023-03-08T03:47:40.489Z,70.32
2023-03-08T03:50:10.962Z,71.83
2023-03-08T03:52:38.450Z,70.37
2023-03-08T03:55:07.376Z,70.39
2023-03-08T03:57:34.888Z,72.39
2023-03-08T04:00:02.381Z,72.84
2023-03-08T04:02:30.198Z,74.33
2023-03-08T04:04:57.718Z,75.70
2023-03-08T04:07:26.556Z,78.60
2023-03-08T04:09:54.066Z,78.05
2023-03-08T04:12:23.742Z,78.29
2023-03-08T04:14:51.216Z,79.65
2023-03-08T04:17:18.750Z,80.75
2023-03-08T04:19:46.258Z,79.29
2023-03-08T04:22:13.738Z,80.37
2023-03-08T04:24:42.553Z,79.22
2023-03-08T04:27:10.092Z,81.52
2023-03-08T04:29:37.544Z,83.31
2023-03-08T04:32:05.717Z,83.38
2023-03-08T04:34:33.221Z,81.40
2023-03-08T04:37:00.700Z,79.98
2023-03-08T04:39:28.278Z,78.99
2023-03-08T04:41:57.163Z,79.01
2023-03-08T04:44:24.666Z,77.98
2023-03-08T04:46:52.209Z,77.91
2023-03-08T04:49:19.714Z,76.12
2023-03-08T04:51:47.196Z,75.00
2023-03-08T04:54:14.657Z,75.63
2023-03-08T04:56:42.508Z,75.51
2023-03-08T04:59:11.302Z,75.22
2023-03-08T05:01:38.827Z,75.11
2023-03-08T05:04:06.454Z,75.25
2023-03-08T05:06:33.958Z,73.11
2023-03-08T05:09:01.572Z,73.24
2023-03-08T05:11:30.457Z,73.72
2023-03-08T05:14:00.159Z,73.85
2023-03-08T05:16:29.322Z,73.31
2023-03-08T05:18:56.870Z,74.42
2023-03-08T05:21:24.601Z,75.03
2023-03-08T05:23:52.105Z,76.23
2023-03-08T05:26:19.660Z,75.43
2023-03-08T05:28:47.133Z,73.24
2023-03-08T05:31:16.681Z,72.24
2023-03-08T05:33:47.094Z,73.95
2023-03-08T05:36:15.491Z,74.38
2023-03-08T05:38:43.723Z,75.72
2023-03-08T05:41:14.141Z,75.39
2023-03-08T05:43:41.664Z,74.54
2023-03-08T05:46:11.870Z,74.76
2023-03-08T05:48:40.211Z,74.10
2023-03-08T05:51:11.310Z,71.78
2023-03-08T05:53:39.314Z,72.05
2023-03-08T05:56:11.342Z,72.60
2023-03-08T05:58:39.448Z,73.78
2023-03-08T06:01:13.236Z,73.38
2023-03-08T06:03:41.098Z,74.12
2023-03-08T06:06:10.072Z,74.04
2023-03-08T06:08:37.650Z,72.66
2023-03-08T06:11:05.520Z,71.65
2023-03-08T06:13:32.975Z,71.89
2023-03-08T06:16:01.380Z,70.60
2023-03-08T06:18:29.536Z,69.57
2023-03-08T06:20:58.869Z,71.37
2023-03-08T06:23:28.590Z,70.33
2023-03-08T06:25:56.555Z,68.21
2023-03-08T06:28:24.545Z,66.62
2023-03-08T06:30:52.478Z,65.30
2023-03-08T06:33:20.841Z,64.07
2023-03-08T06:35:57.193Z,64.36
2023-03-08T06:38:25.096Z,64.89
2023-03-08T06:40:54.170Z,64.81
2023-03-08T06:43:22.159Z,64.61
2023-03-08T06:45:50.114Z,63.97
2023-03-08T06:48:18.180Z,62.15
2023-03-08T06:50:46.158Z,61.52
2023-03-08T06:53:14.150Z,61.08
2023-03-08T06:55:42.916Z,61.91
2023-03-08T06:58:11.722Z,63.21
2023-03-08T07:00:39.555Z,64.55
2023-03-08T07:03:07.234Z,65.09
2023-03-08T07:05:34.679Z,66.66
2023-03-08T07:08:02.123Z,67.07
2023-03-08T07:10:29.733Z,68.16
2023-03-08T07:12:57.322Z,67.92
2023-03-08T07:15:26.438Z,67.75
2023-03-08T07:17:56.497Z,66.67
2023-03-08T07:20:25.478Z,67.56
2023-03-08T07:22:53.428Z,67.11
2023-03-08T07:25:22.069Z,67.56
2023-03-08T07:27:49.637Z,68.19
2023-03-08T07:30:17.997Z,67.08
2023-03-08T07:32:46.952Z,66.14
2023-03-08T07:35:16.146Z,64.82
2023-03-08T07:37:45.956Z,63.72
2023-03-08T07:40:14.983Z,64.59
2023-03-08T07:42:42.460Z,65.08
2023-03-08T07:45:11.887Z,65.11
2023-03-08T07:47:40.458Z,65.99
2023-03-08T07:50:10.895Z,65.68
2023-03-08T07:52:38.428Z,63.49
2023-03-08T07:55:07.011Z,63.35
2023-03-08T07:57:34.541Z,63.75
2023-03-08T08:00:01.999Z,62.01
2023-03-08T08:02:29.451Z,61.37
2023-03-08T08:04:57.004Z,60.74
2023-03-08T08:07:25.875Z,61.16
2023-03-08T08:09:53.400Z,60.88
2023-03-08T08:12:20.870Z,59.84
2023-03-08T08:14:48.408Z,58.06
2023-03-08T08:17:15.884Z,59.25
2023-03-08T08:19:43.372Z,57.58
2023-03-08T08:22:10.922Z,57.43
2023-03-08T08:24:39.717Z,59.06
2023-03-08T08:27:07.261Z,59.49
2023-03-08T08:29:34.762Z,58.91
2023-03-08T08:32:04.154Z,60.30
2023-03-08T08:34:31.618Z,61.24
2023-03-08T08:36:59.143Z,61.74
2023-03-08T08:39:26.662Z,63.21
2023-03-08T08:41:55.467Z,65.37
2023-03-08T08:44:23.022Z,70.49
2023-03-08T08:46:50.506Z,77.83
2023-03-08T08:49:17.962Z,79.35
2023-03-08T08:51:45.520Z,78.23
2023-03-08T08:54:13.018Z,79.53
2023-03-08T08:56:42.896Z,76.79
2023-03-08T08:59:13.157Z,79.44
2023-03-08T09:01:43.657Z,84.19
2023-03-08T09:04:12.088Z,89.82
2023-03-08T09:06:40.596Z,88.27
2023-03-08T09:09:08.110Z,88.77
2023-03-08T09:11:48.495Z,91.20
2023-03-08T09:14:22.557Z,88.27
2023-03-08T09:16:50.184Z,91.88
2023-03-08T09:19:17.732Z,93.40
2023-03-08T09:21:45.218Z,97.65
2023-03-08T09:24:13.177Z,100.00
2023-03-08T09:26:40.695Z,100.00
2023-03-08T09:29:08.230Z,100.00
2023-03-08T09:31:38.849Z,100.00
2023-03-08T09:34:08.881Z,100.00
2023-03-08T09:36:39.356Z,100.00
2023-03-08T09:39:08.750Z,100.00
2023-03-08T09:41:46.215Z,100.00
2023-03-08T09:44:26.877Z,100.00
2023-03-08T09:47:00.596Z,100.00
2023-03-08T09:49:30.584Z,100.00
2023-03-08T09:52:03.756Z,100.00
2023-03-08T09:54:38.129Z,100.00
2023-03-08T09:57:11.365Z,100.00
2023-03-08T09:59:42.460Z,100.00
2023-03-08T10:02:25.915Z,100.00
2023-03-08T10:05:12.834Z,100.00
2023-03-08T10:07:53.806Z,100.00
2023-03-08T10:10:34.372Z,100.00
2023-03-08T10:13:16.673Z,100.00
2023-03-08T10:15:48.103Z,100.00
2023-03-08T10:18:29.254Z,100.00
2023-03-08T10:20:59.090Z,100.00
2023-03-08T10:23:31.373Z,100.00
2023-03-08T10:25:59.944Z,100.00
2023-03-08T10:28:28.415Z,100.00
2023-03-08T10:30:58.441Z,100.00
2023-03-08T10:33:33.364Z,100.00
2023-03-08T10:36:03.695Z,100.00
2023-03-08T10:38:34.169Z,100.00
2023-03-08T10:41:03.671Z,100.00
2023-03-08T10:43:34.042Z,100.00
2023-03-08T10:46:04.373Z,100.00
2023-03-08T10:48:33.775Z,100.00
2023-03-08T10:51:02.682Z,100.00
2023-03-08T10:53:30.626Z,100.00
2023-03-08T10:56:00.041Z,100.00
2023-03-08T10:58:31.738Z,100.00
2023-03-08T11:01:01.191Z,100.00
2023-03-08T11:03:29.557Z,100.00
2023-03-08T11:06:00.581Z,100.00
2023-03-08T11:08:30.600Z,100.00
2023-03-08T11:11:15.743Z,100.00
2023-03-08T11:13:46.549Z,100.00
2023-03-08T11:16:39.821Z,100.00
2023-03-08T11:19:17.348Z,100.00
2023-03-08T11:22:00.037Z,100.00
2023-03-08T11:24:41.085Z,100.00
2023-03-08T11:27:21.645Z,100.00
2023-03-08T11:30:03.832Z,100.00
2023-03-08T11:32:44.990Z,100.00
2023-03-08T11:35:23.187Z,100.00
2023-03-08T11:37:59.611Z,100.00
2023-03-08T11:40:30.677Z,100.00
2023-03-08T11:43:18.792Z,100.00
2023-03-08T11:45:53.668Z,100.00
2023-03-08T11:48:56.687Z,100.00
2023-03-08T11:51:31.022Z,100.00
2023-03-08T11:54:12.401Z,100.00
2023-03-08T11:56:47.079Z,100.00
2023-03-08T11:59:20.761Z,100.00
2023-03-08T12:01:51.211Z,100.00
2023-03-08T12:04:23.440Z,100.00
2023-03-08T12:06:54.682Z,100.00
2023-03-08T12:09:30.669Z,100.00
2023-03-08T12:12:04.542Z,100.00
2023-03-08T12:14:35.305Z,100.00
2023-03-08T12:17:12.002Z,100.00
2023-03-08T12:19:43.798Z,100.00
2023-03-08T12:22:24.415Z,100.00
2023-03-08T12:25:00.184Z,100.00
2023-03-08T12:27:31.834Z,100.00
2023-03-08T12:30:05.580Z,100.00
2023-03-08T12:32:37.718Z,100.00
2023-03-08T12:35:08.470Z,100.00
2023-03-08T12:37:36.109Z,100.00
2023-03-08T12:40:11.234Z,100.00
2023-03-08T12:42:40.554Z,100.00
2023-03-08T12:45:30.763Z,100.00
2023-03-08T12:48:08.803Z,100.00
2023-03-08T12:50:41.777Z,100.00
2023-03-08T12:53:31.384Z,100.00
2023-03-08T12:56:03.246Z,100.00
2023-03-08T12:58:31.744Z,100.00
2023-03-08T13:01:01.907Z,100.00
2023-03-08T13:03:37.217Z,100.00
2023-03-08T13:06:16.657Z,100.00
2023-03-08T13:08:52.863Z,100.00
2023-03-08T13:11:25.257Z,100.00
2023-03-08T13:13:57.167Z,100.00
2023-03-08T13:16:35.152Z,100.00
2023-03-08T13:19:17.272Z,100.00
2023-03-08T13:21:50.240Z,100.00
2023-03-08T13:24:26.023Z,100.00
2023-03-08T13:27:07.121Z,100.00
2023-03-08T13:29:35.107Z,100.00
2023-03-08T13:32:08.521Z,100.00
2023-03-08T13:34:36.170Z,100.00
2023-03-08T13:37:03.843Z,100.00
2023-03-08T13:39:32.721Z,100.00
2023-03-08T13:42:09.564Z,100.00
2023-03-08T13:44:37.517Z,100.00
2023-03-08T13:47:13.978Z,100.00
2023-03-08T13:49:45.508Z,100.00
2023-03-08T13:52:17.928Z,100.00
2023-03-08T13:54:48.255Z,100.00
2023-03-08T13:57:23.914Z,100.00
2023-03-08T13:59:53.491Z,100.00
2023-03-08T14:02:23.499Z,100.00
2023-03-08T14:04:51.480Z,100.00
2023-03-08T14:07:22.782Z,100.00
2023-03-08T14:09:50.348Z,100.00
2023-03-08T14:12:23.030Z,100.00
2023-03-08T14:14:53.465Z,100.00
2023-03-08T14:17:23.503Z,100.00
2023-03-08T14:19:56.086Z,100.00
2023-03-08T14:22:38.232Z,100.00
2023-03-08T14:25:07.883Z,100.00
2023-03-08T14:27:42.434Z,100.00
2023-03-08T14:30:15.723Z,100.00
2023-03-08T14:32:56.865Z,100.00
2023-03-08T14:35:27.650Z,100.00
2023-03-08T14:37:56.102Z,100.00
2023-03-08T14:40:32.573Z,100.00
2023-03-08T14:43:04.488Z,100.00
2023-03-08T14:45:36.219Z,100.00
2023-03-08T14:48:21.849Z,100.00
2023-03-08T14:50:55.459Z,100.00
2023-03-08T14:53:30.159Z,100.00
2023-03-08T14:55:58.295Z,100.00
2023-03-08T14:58:29.464Z,100.00
2023-03-08T15:01:00.814Z,100.00
2023-03-08T15:03:28.726Z,100.00
2023-03-08T15:05:57.461Z,100.00
2023-03-08T15:08:26.106Z,100.00
2023-03-08T15:10:53.937Z,100.00
2023-03-08T15:13:23.844Z,100.00
2023-03-08T15:15:52.806Z,100.00
2023-03-08T15:18:20.831Z,100.00
2023-03-08T15:20:50.586Z,100.00
2023-03-08T15:23:21.309Z,100.00
2023-03-08T15:25:49.147Z,100.00
2023-03-08T15:28:18.715Z,100.00
2023-03-08T15:30:46.519Z,100.00
2023-03-08T15:33:15.410Z,100.00
2023-03-08T15:35:43.254Z,100.00
2023-03-08T15:38:13.457Z,100.00
2023-03-08T15:40:41.356Z,100.00
2023-03-08T15:43:09.620Z,100.00
2023-03-08T15:45:37.760Z,100.00
2023-03-08T15:48:07.265Z,100.00
2023-03-08T15:50:36.446Z,100.00
2023-03-08T15:53:04.373Z,100.00
2023-03-08T15:55:32.139Z,100.00
2023-03-08T15:57:59.752Z,100.00
2023-03-08T16:00:27.698Z,100.00
2023-03-08T16:02:55.254Z,100.00
2023-03-08T16:05:25.112Z,100.00
2023-03-08T16:07:57.781Z,100.00
2023-03-08T16:10:25.305Z,100.00
2023-03-08T16:12:52.940Z,100.00
2023-03-08T16:15:21.116Z,100.00
2023-03-08T16:17:48.941Z,100.00
2023-03-08T16:20:17.066Z,100.00
2023-03-08T16:22:46.118Z,100.00
2023-03-08T16:25:15.781Z,100.00
2023-03-08T16:27:43.289Z,100.00
2023-03-08T16:30:12.659Z,100.00
2023-03-08T16:32:40.226Z,100.00
2023-03-08T16:35:08.141Z,100.00
2023-03-08T16:37:35.609Z,100.00
2023-03-08T16:40:04.884Z,100.00
2023-03-08T16:42:33.857Z,100.00
2023-03-08T16:45:01.750Z,100.00
2023-03-08T16:47:32.127Z,100.00
2023-03-08T16:50:00.486Z,100.00
2023-03-08T16:52:28.955Z,100.00
2023-03-08T16:54:57.523Z,100.00
2023-03-08T16:57:25.243Z,100.00
2023-03-08T16:59:54.066Z,100.00
2023-03-08T17:02:23.131Z,100.00
2023-03-08T17:04:50.960Z,100.00
2023-03-08T17:07:18.594Z,100.00
2023-03-08T17:09:46.409Z,100.00
2023-03-08T17:12:14.066Z,100.00
2023-03-08T17:14:43.992Z,100.00
2023-03-08T17:17:13.660Z,100.00
2023-03-08T17:19:41.298Z,100.00
2023-03-08T17:22:09.064Z,100.00
2023-03-08T17:24:36.635Z,100.00
2023-03-08T17:27:04.385Z,100.00
2023-03-08T17:29:31.859Z,100.00
2023-03-08T17:31:59.317Z,100.00
2023-03-08T17:34:28.407Z,100.00
2023-03-08T17:36:55.936Z,100.00
2023-03-08T17:39:23.371Z,100.00
2023-03-08T17:41:50.846Z,100.00
2023-03-08T17:44:18.296Z,100.00
2023-03-08T17:46:45.754Z,100.00
2023-03-08T17:49:13.960Z,100.00
2023-03-08T17:51:42.769Z,100.00
2023-03-08T17:54:11.740Z,100.00
2023-03-08T17:56:40.843Z,100.00
2023-03-08T17:59:08.515Z,100.00
2023-03-08T18:01:35.986Z,100.00
2023-03-08T18:04:05.463Z,100.00
2023-03-08T18:06:35.239Z,100.00
2023-03-08T18:09:07.052Z,100.00
2023-03-08T18:11:37.476Z,100.00
2023-03-08T18:14:05.670Z,100.00
2023-03-08T18:16:33.528Z,100.00
2023-03-08T18:19:02.247Z,100.00
2023-03-08T18:21:31.357Z,100.00
2023-03-08T18:23:59.116Z,100.00
2023-03-08T18:26:28.883Z,100.00
2023-03-08T18:28:56.433Z,100.00
2023-03-08T18:31:26.311Z,100.00
2023-03-08T18:33:55.317Z,100.00
2023-03-08T18:36:24.171Z,100.00
2023-03-08T18:38:52.087Z,100.00
2023-03-08T18:41:22.146Z,100.00
2023-03-08T18:43:51.335Z,100.00
2023-03-08T18:46:19.395Z,100.00
2023-03-08T18:48:50.634Z,100.00
2023-03-08T18:51:18.347Z,100.00
2023-03-08T18:53:45.824Z,100.00
2023-03-08T18:56:13.438Z,100.00
2023-03-08T18:58:41.284Z,100.00
2023-03-08T19:01:12.922Z,100.00
2023-03-08T19:03:41.224Z,100.00
2023-03-08T19:06:09.453Z,100.00
2023-03-08T19:08:37.276Z,100.00
2023-03-08T19:11:11.470Z,100.00
2023-03-08T19:13:39.010Z,100.00
2023-03-08T19:16:07.216Z,100.00
2023-03-08T19:18:36.129Z,100.00
2023-03-08T19:21:03.663Z,100.00
2023-03-08T19:23:31.138Z,100.00
2023-03-08T19:26:16.335Z,100.00
2023-03-08T19:28:43.830Z,100.00
2023-03-08T19:31:17.467Z,100.00
2023-03-08T19:33:49.651Z,100.00
2023-03-08T19:36:17.136Z,100.00
2023-03-08T19:38:44.636Z,100.00
2023-03-08T19:41:13.357Z,100.00
2023-03-08T19:43:41.032Z,100.00
2023-03-08T19:46:09.466Z,100.00
2023-03-08T19:48:37.569Z,100.00
2023-03-08T19:51:06.576Z,100.00
2023-03-08T19:53:34.069Z,100.00
2023-03-08T19:56:01.717Z,100.00
2023-03-08T19:58:29.235Z,100.00
2023-03-08T20:01:03.489Z,100.00
2023-03-08T20:03:31.122Z,100.00
2023-03-08T20:05:59.127Z,100.00
2023-03-08T20:08:27.977Z,100.00
2023-03-08T20:10:55.461Z,100.00
2023-03-08T20:13:23.314Z,100.00
2023-03-08T20:15:50.808Z,100.00
2023-03-08T20:18:18.291Z,100.00
2023-03-08T20:20:45.850Z,100.00
2023-03-08T20:23:13.572Z,100.00
2023-03-08T20:25:43.787Z,100.00
2023-03-08T20:28:11.378Z,100.00
2023-03-08T20:30:39.380Z,100.00
2023-03-08T20:33:07.058Z,100.00
2023-03-08T20:35:34.549Z,100.00
2023-03-08T20:38:02.092Z,100.00
2023-03-08T20:40:29.632Z,100.00
2023-03-08T20:42:58.591Z,100.00
2023-03-08T20:45:26.482Z,100.00
2023-03-08T20:47:54.733Z,100.00
2023-03-08T20:50:22.510Z,100.00
2023-03-08T20:52:49.999Z,100.00
2023-03-08T20:55:17.601Z,100.00
2023-03-08T20:57:45.589Z,100.00
2023-03-08T21:00:15.557Z,100.00
2023-03-08T21:02:43.141Z,100.00
2023-03-08T21:05:11.083Z,100.00
2023-03-08T21:07:38.561Z,100.00
2023-03-08T21:10:06.821Z,100.00
2023-03-08T21:12:34.301Z,100.00
2023-03-08T21:15:03.482Z,100.00
2023-03-08T21:17:36.694Z,100.00
2023-03-08T21:20:05.943Z,100.00
2023-03-08T21:22:33.579Z,100.00
2023-03-08T21:25:01.091Z,100.00
2023-03-08T21:27:28.572Z,100.00
2023-03-08T21:29:56.091Z,100.00
2023-03-08T21:32:24.526Z,100.00
2023-03-08T21:34:54.351Z,100.00
2023-03-08T21:37:21.798Z,100.00
2023-03-08T21:39:49.284Z,100.00
2023-03-08T21:42:16.772Z,100.00
2023-03-08T21:44:44.231Z,100.00
2023-03-08T21:47:11.695Z,100.00
2023-03-08T21:49:39.212Z,100.00
2023-03-08T21:52:08.022Z,100.00
2023-03-08T21:54:35.499Z,100.00
2023-03-08T21:57:02.998Z,100.00
2023-03-08T21:59:30.482Z,100.00
2023-03-08T22:01:58.793Z,100.00
2023-03-08T22:04:27.600Z,100.00
2023-03-08T22:06:55.597Z,100.00
2023-03-08T22:09:26.774Z,100.00
2023-03-08T22:11:54.478Z,100.00
2023-03-08T22:14:21.990Z,100.00
2023-03-08T22:16:49.481Z,100.00
2023-03-08T22:19:17.944Z,100.00
2023-03-08T22:21:45.438Z,100.00
2023-03-08T22:24:12.965Z,100.00
2023-03-08T22:26:41.791Z,100.00
2023-03-08T22:29:09.283Z,100.00
2023-03-08T22:31:36.843Z,100.00
2023-03-08T22:34:04.679Z,100.00
2023-03-08T22:36:32.131Z,100.00
2023-03-08T22:38:59.614Z,100.00
2023-03-08T22:41:28.539Z,100.00
2023-03-08T22:43:57.364Z,100.00
2023-03-08T22:46:26.939Z,100.00
2023-03-08T22:48:56.555Z,100.00
2023-03-08T22:51:24.527Z,100.00
2023-03-08T22:53:52.419Z,100.00
2023-03-08T22:56:22.717Z,100.00
2023-03-08T22:58:50.644Z,100.00
2023-03-08T23:01:21.452Z,100.00
2023-03-08T23:03:49.786Z,100.00
2023-03-08T23:06:18.265Z,100.00
2023-03-08T23:08:46.240Z,100.00
2023-03-08T23:11:14.226Z,100.00
2023-03-08T23:13:42.201Z,100.00
2023-03-08T23:16:12.512Z,100.00
2023-03-08T23:18:41.425Z,100.00
2023-03-08T23:21:10.872Z,100.00
2023-03-08T23:23:38.383Z,100.00
2023-03-08T23:26:07.374Z,100.00
2023-03-08T23:28:36.346Z,100.00
2023-03-08T23:31:08.701Z,100.00
2023-03-08T23:33:36.170Z,100.00
2023-03-08T23:36:05.917Z,100.00
2023-03-08T23:38:33.475Z,100.00
2023-03-08T23:41:04.618Z,100.00
2023-03-08T23:43:32.177Z,100.00
2023-03-08T23:45:59.859Z,100.00
2023-03-08T23:48:27.354Z,100.00
2023-03-08T23:50:54.803Z,100.00
2023-03-08T23:53:23.637Z,100.00
2023-03-08T23:55:51.115Z,100.00
2023-03-08T23:58:18.609Z,100.00
